createdAt,value
2019-05-28T00:00:40.478Z,1.53
2019-05-28T00:03:11.594Z,1.87
2019-05-28T00:05:42.887Z,2.07
2019-05-28T00:08:13.942Z,1.60
2019-05-28T00:10:45.275Z,1.77
2019-05-28T00:13:16.302Z,1.90
2019-05-28T00:15:48.178Z,1.70
2019-05-28T00:18:19.256Z,1.80
2019-05-28T00:20:50.581Z,1.60
2019-05-28T00:23:21.652Z,1.67
2019-05-28T00:25:53.060Z,1.53
2019-05-28T00:28:24.278Z,1.60
2019-05-28T00:30:55.662Z,1.50
2019-05-28T00:33:26.672Z,1.57
2019-05-28T00:35:58.054Z,1.70
2019-05-28T00:38:29.068Z,1.40
2019-05-28T00:41:00.932Z,1.87
2019-05-28T00:43:32.127Z,1.40
2019-05-28T00:46:03.680Z,1.80
2019-05-28T00:48:34.774Z,1.40
2019-05-28T00:51:06.371Z,1.50
2019-05-28T00:56:33.240Z,1.80
2019-05-28T00:59:15.852Z,1.50
2019-05-28T01:01:58.850Z,1.70
2019-05-28T01:04:30.018Z,2.10
2019-05-28T01:07:01.467Z,1.63
2019-05-28T01:10:23.935Z,1.80
2019-05-28T01:12:55.313Z,2.97
2019-05-28T01:15:26.368Z,2.20
2019-05-28T01:17:57.660Z,2.10
2019-05-28T01:20:29.069Z,1.67
2019-05-28T01:23:00.445Z,1.60
2019-05-28T01:25:31.540Z,1.80
2019-05-28T01:28:03.780Z,1.93
2019-05-28T01:30:34.818Z,1.60
2019-05-28T01:33:06.252Z,1.60
2019-05-28T01:35:37.279Z,1.50
2019-05-28T01:38:09.039Z,1.50
2019-05-28T01:40:40.122Z,1.63
2019-05-28T01:43:11.658Z,1.90
2019-05-28T01:45:42.720Z,1.80
2019-05-28T01:48:13.946Z,1.90
2019-05-28T01:50:52.488Z,1.73
2019-05-28T01:53:42.862Z,2.37
2019-05-28T01:56:13.964Z,2.80
2019-05-28T01:58:45.559Z,2.80
2019-05-28T02:01:16.690Z,2.00
2019-05-28T02:03:48.050Z,1.50
2019-05-28T02:06:19.248Z,1.40
2019-05-28T02:08:51.785Z,1.50
2019-05-28T02:11:22.874Z,1.30
2019-05-28T02:13:54.166Z,1.60
2019-05-28T02:16:25.234Z,1.50
2019-05-28T02:18:56.794Z,1.83
2019-05-28T02:21:28.067Z,1.40
2019-05-28T02:27:43.516Z,1.70
2019-05-28T02:30:15.514Z,1.60
2019-05-28T02:32:46.936Z,1.67
2019-05-28T02:35:18.459Z,1.60
2019-05-28T02:41:34.986Z,1.70
2019-05-28T02:44:06.152Z,1.37
2019-05-28T02:46:49.486Z,1.73
2019-05-28T02:49:20.607Z,1.57
2019-05-28T02:55:28.978Z,1.77
2019-05-28T02:58:00.146Z,1.80
2019-05-28T03:00:31.678Z,2.00
2019-05-28T03:03:04.322Z,1.80
2019-05-28T03:05:37.844Z,1.90
2019-05-28T03:08:11.360Z,2.30
2019-05-28T03:11:03.229Z,2.17
2019-05-28T03:13:17.173Z,2.00
2019-05-28T03:15:50.416Z,2.30
2019-05-28T03:18:23.452Z,2.30
2019-05-28T03:20:56.856Z,2.13
2019-05-28T03:23:32.623Z,2.20
2019-05-28T03:26:05.186Z,2.10
2019-05-28T03:28:36.339Z,2.80
2019-05-28T03:31:08.157Z,2.90
2019-05-28T03:33:39.256Z,2.77
2019-05-28T03:36:13.108Z,2.70
2019-05-28T03:38:45.867Z,2.97
2019-05-28T03:41:17.127Z,2.90
2019-05-28T03:43:49.368Z,2.50
2019-05-28T03:46:20.589Z,2.80
2019-05-28T03:48:51.704Z,3.03
2019-05-28T03:51:22.936Z,2.70
2019-05-28T03:53:54.059Z,2.70
2019-05-28T03:56:25.330Z,2.80
2019-05-28T03:58:56.648Z,2.97
2019-05-28T04:01:28.139Z,3.03
2019-05-28T04:03:59.212Z,2.80
2019-05-28T04:06:30.391Z,3.20
2019-05-28T04:09:01.454Z,3.10
2019-05-28T04:11:44.388Z,3.10
2019-05-28T04:14:07.932Z,3.20
2019-05-28T04:16:39.199Z,3.77
2019-05-28T04:19:10.288Z,3.60
2019-05-28T04:21:41.472Z,3.60
2019-05-28T04:24:12.615Z,3.57
2019-05-28T04:26:43.985Z,3.60
2019-05-28T04:29:15.297Z,3.90
2019-05-28T04:31:46.442Z,3.77
2019-05-28T04:34:17.484Z,4.03
2019-05-28T04:36:48.777Z,3.70
2019-05-28T04:39:38.970Z,4.40
2019-05-28T04:42:10.248Z,3.70
2019-05-28T04:44:41.383Z,3.97
2019-05-28T04:47:12.652Z,3.57
2019-05-28T04:49:43.684Z,3.43
2019-05-28T04:52:14.838Z,3.67
2019-05-28T04:54:45.920Z,4.13
2019-05-28T04:57:17.307Z,4.20
2019-05-28T04:59:48.340Z,3.60
2019-05-28T05:02:19.672Z,3.97
2019-05-28T05:04:50.676Z,4.60
2019-05-28T05:07:22.076Z,4.33
2019-05-28T05:09:53.199Z,4.03
2019-05-28T05:12:24.565Z,4.47
2019-05-28T05:14:55.865Z,4.37
2019-05-28T05:17:28.278Z,4.93
2019-05-28T05:19:59.430Z,4.93
2019-05-28T05:22:30.983Z,4.80
2019-05-28T05:25:02.159Z,4.70
2019-05-28T05:27:33.512Z,4.90
2019-05-28T05:30:05.212Z,4.40
2019-05-28T05:32:36.703Z,5.33
2019-05-28T05:35:08.017Z,4.90
2019-05-28T05:37:39.195Z,5.27
2019-05-28T05:40:11.150Z,4.80
2019-05-28T05:42:42.528Z,4.60
2019-05-28T05:45:14.310Z,5.23
2019-05-28T05:47:45.714Z,5.17
2019-05-28T05:50:17.588Z,5.23
2019-05-28T05:52:48.911Z,5.27
2019-05-28T05:55:19.924Z,5.30
2019-05-28T05:57:51.312Z,5.00
2019-05-28T06:00:22.620Z,6.60
2019-05-28T06:02:53.908Z,5.40
2019-05-28T06:05:24.939Z,5.93
2019-05-28T06:07:56.265Z,5.13
2019-05-28T06:10:27.361Z,4.93
2019-05-28T06:12:58.698Z,4.70
2019-05-28T06:15:30.089Z,5.30
2019-05-28T06:18:01.712Z,5.97
2019-05-28T06:20:45.185Z,5.53
2019-05-28T06:23:16.468Z,4.70
2019-05-28T06:25:47.610Z,5.70
2019-05-28T06:28:30.573Z,6.00
2019-05-28T06:31:01.937Z,5.90
2019-05-28T06:33:33.246Z,5.60
2019-05-28T06:36:04.610Z,5.30
2019-05-28T06:38:35.852Z,5.20
2019-05-28T06:41:18.388Z,6.43
2019-05-28T06:43:49.802Z,6.27
2019-05-28T06:46:21.388Z,5.90
2019-05-28T06:48:52.817Z,6.10
2019-05-28T06:51:23.929Z,5.50
2019-05-28T06:53:55.524Z,6.07
2019-05-28T06:56:26.631Z,6.10
2019-05-28T06:58:58.222Z,5.93
2019-05-28T07:01:29.534Z,6.33
2019-05-28T07:04:13.446Z,6.30
2019-05-28T07:06:33.744Z,6.27
2019-05-28T07:09:07.961Z,6.27
2019-05-28T07:11:39.084Z,5.90
2019-05-28T07:14:10.315Z,6.30
2019-05-28T07:16:52.696Z,6.50
2019-05-28T07:19:24.735Z,5.60
2019-05-28T07:21:47.895Z,5.37
2019-05-28T07:24:19.186Z,4.70
2019-05-28T07:26:50.318Z,4.73
2019-05-28T07:29:21.683Z,4.17
2019-05-28T07:31:53.158Z,4.50
2019-05-28T07:34:30.763Z,4.50
2019-05-28T07:36:58.533Z,4.27
2019-05-28T07:39:29.646Z,4.00
2019-05-28T07:42:00.834Z,3.70
2019-05-28T07:44:32.138Z,4.53
2019-05-28T07:47:03.360Z,4.23
2019-05-28T07:49:34.928Z,4.00
2019-05-28T07:52:05.962Z,4.10
2019-05-28T07:54:39.331Z,4.13
2019-05-28T07:57:10.080Z,3.93
2019-05-28T07:59:41.452Z,4.67
2019-05-28T08:02:12.557Z,4.67
2019-05-28T08:04:47.371Z,4.23
2019-05-28T08:07:16.700Z,4.23
2019-05-28T08:09:47.983Z,4.73
2019-05-28T08:12:19.054Z,6.20
2019-05-28T08:14:50.316Z,4.90
2019-05-28T08:17:21.388Z,4.80
2019-05-28T08:19:52.776Z,5.07
2019-05-28T08:22:38.759Z,4.87
2019-05-28T08:24:57.927Z,4.53
2019-05-28T08:27:29.184Z,5.13
2019-05-28T08:30:00.523Z,4.63
2019-05-28T08:32:31.737Z,5.00
2019-05-28T08:35:05.940Z,4.80
2019-05-28T08:37:36.288Z,4.10
2019-05-28T08:40:07.966Z,4.10
2019-05-28T08:42:39.083Z,3.97
2019-05-28T08:45:10.588Z,4.07
2019-05-28T08:47:42.273Z,4.57
2019-05-28T08:50:14.298Z,4.80
2019-05-28T08:52:45.430Z,4.30
2019-05-28T08:55:17.311Z,5.00
2019-05-28T08:57:48.513Z,4.70
2019-05-28T09:00:38.276Z,4.80
2019-05-28T09:03:09.978Z,4.20
2019-05-28T09:05:41.210Z,4.70
2019-05-28T09:08:12.326Z,4.50
2019-05-28T09:10:43.559Z,4.30
2019-05-28T09:13:14.749Z,4.83
2019-05-28T09:15:46.522Z,4.87
2019-05-28T09:18:17.612Z,5.03
2019-05-28T09:20:48.889Z,5.10
2019-05-28T09:23:20.152Z,5.70
2019-05-28T09:25:51.611Z,4.87
2019-05-28T09:28:29.784Z,4.73
2019-05-28T09:30:55.751Z,4.63
2019-05-28T09:33:27.422Z,4.30
2019-05-28T09:36:08.246Z,4.47
2019-05-28T09:38:31.734Z,5.40
2019-05-28T09:41:05.836Z,4.20
2019-05-28T09:43:36.771Z,4.87
2019-05-28T09:46:08.042Z,3.97
2019-05-28T09:48:39.443Z,3.70
2019-05-28T09:51:10.749Z,3.40
2019-05-28T09:53:41.876Z,4.43
2019-05-28T09:56:13.243Z,3.70
2019-05-28T09:58:44.278Z,4.50
2019-05-28T10:01:16.245Z,3.97
2019-05-28T10:03:47.449Z,3.60
2019-05-28T10:06:18.745Z,3.33
2019-05-28T10:08:49.880Z,3.00
2019-05-28T10:11:32.604Z,3.27
2019-05-28T10:14:03.753Z,3.20
2019-05-28T10:16:35.124Z,3.30
2019-05-28T10:19:06.414Z,2.80
2019-05-28T10:21:37.794Z,3.43
2019-05-28T10:24:08.823Z,3.10
2019-05-28T10:26:40.207Z,3.30
2019-05-28T10:29:11.656Z,2.53
2019-05-28T10:31:42.992Z,3.00
2019-05-28T10:34:14.099Z,3.23
2019-05-28T10:36:45.471Z,3.20
2019-05-28T10:39:16.502Z,3.40
2019-05-28T10:41:47.632Z,3.20
2019-05-28T10:44:18.743Z,3.10
2019-05-28T10:46:50.089Z,2.70
2019-05-28T10:49:21.152Z,2.67
2019-05-28T10:51:52.361Z,3.00
2019-05-28T10:54:23.426Z,3.90
2019-05-28T10:56:54.594Z,3.00
2019-05-28T10:59:25.788Z,2.80
2019-05-28T11:01:57.130Z,2.60
2019-05-28T11:04:29.241Z,2.90
2019-05-28T11:07:00.548Z,2.63
2019-05-28T11:09:31.712Z,3.07
2019-05-28T11:12:03.145Z,2.70
2019-05-28T11:14:34.199Z,2.90
2019-05-28T11:17:05.319Z,2.70
2019-05-28T11:19:36.471Z,2.47
2019-05-28T11:22:19.844Z,2.80
2019-05-28T11:24:51.108Z,2.90
2019-05-28T11:27:24.163Z,3.00
2019-05-28T11:29:55.329Z,2.50
2019-05-28T11:32:26.744Z,2.33
2019-05-28T11:34:57.875Z,2.17
2019-05-28T11:37:29.238Z,2.53
2019-05-28T11:40:00.307Z,2.10
2019-05-28T11:42:33.174Z,2.40
2019-05-28T11:45:05.736Z,2.13
2019-05-28T11:47:37.510Z,2.20
2019-05-28T11:50:09.197Z,2.50
2019-05-28T11:52:40.724Z,2.10
2019-05-28T11:55:13.337Z,2.60
2019-05-28T11:57:44.569Z,2.60
2019-05-28T12:00:17.011Z,2.70
2019-05-28T12:02:48.577Z,2.40
2019-05-28T12:05:20.529Z,1.93
2019-05-28T12:07:52.321Z,2.50
2019-05-28T12:10:24.068Z,2.47
2019-05-28T12:12:55.415Z,2.53
2019-05-28T12:15:26.571Z,2.40
2019-05-28T12:17:57.909Z,3.07
2019-05-28T12:20:29.778Z,3.00
2019-05-28T12:23:10.996Z,2.80
2019-05-28T12:25:33.869Z,2.90
2019-05-28T12:28:34.283Z,2.80
2019-05-28T12:30:49.576Z,2.73
2019-05-28T12:33:21.115Z,2.83
2019-05-28T12:35:52.235Z,3.53
2019-05-28T12:38:24.660Z,2.63
2019-05-28T12:40:55.705Z,2.50
2019-05-28T12:43:27.057Z,2.63
2019-05-28T12:45:58.083Z,2.80
2019-05-28T12:48:29.545Z,3.27
2019-05-28T12:51:02.365Z,3.40
2019-05-28T12:53:49.137Z,2.80
2019-05-28T12:56:06.395Z,2.50
2019-05-28T12:58:42.512Z,3.40
2019-05-28T13:01:10.782Z,2.80
2019-05-28T13:03:42.271Z,3.13
2019-05-28T13:06:13.462Z,2.77
2019-05-28T13:08:45.467Z,3.20
2019-05-28T13:11:16.542Z,3.43
2019-05-28T13:13:47.969Z,2.90
2019-05-28T13:16:19.088Z,3.30
2019-05-28T13:18:50.203Z,3.20
2019-05-28T13:21:21.345Z,3.33
2019-05-28T13:23:52.557Z,3.03
2019-05-28T13:48:36.276Z,2.30
2019-05-28T13:51:07.604Z,2.57
2019-05-28T13:53:38.879Z,3.70
2019-05-28T13:56:10.083Z,3.90
2019-05-28T13:58:41.467Z,2.77
2019-05-28T14:01:12.522Z,2.53
2019-05-28T14:03:44.271Z,2.73
2019-05-28T14:06:15.433Z,3.10
2019-05-28T14:08:47.656Z,2.20
2019-05-28T14:11:19.091Z,2.57
2019-05-28T14:13:50.292Z,2.57
2019-05-28T14:16:21.319Z,2.80
2019-05-28T14:18:52.783Z,2.77
2019-05-28T14:21:25.379Z,2.80
2019-05-28T14:23:56.646Z,2.80
2019-05-28T14:26:27.689Z,2.77
2019-05-28T14:28:59.101Z,3.17
2019-05-28T14:31:30.139Z,2.80
2019-05-28T14:34:01.482Z,3.30
2019-05-28T14:36:32.578Z,3.10
2019-05-28T14:39:04.517Z,3.80
2019-05-28T14:41:35.661Z,3.43
2019-05-28T14:44:27.355Z,3.90
2019-05-28T14:46:58.525Z,4.10
2019-05-28T14:49:29.810Z,4.30
2019-05-28T14:52:00.864Z,3.17
2019-05-28T14:54:32.124Z,3.40
2019-05-28T14:57:03.242Z,2.90
2019-05-28T14:59:34.541Z,3.70
2019-05-28T15:02:06.456Z,3.20
2019-05-28T15:04:37.886Z,3.40
2019-05-28T15:07:08.923Z,3.80
2019-05-28T15:09:40.291Z,3.33
2019-05-28T15:12:12.418Z,3.70
2019-05-28T15:14:43.770Z,3.87
2019-05-28T15:17:15.466Z,3.80
2019-05-28T15:19:46.773Z,4.07
2019-05-28T15:22:17.926Z,3.90
2019-05-28T15:24:50.041Z,3.80
2019-05-28T15:27:21.425Z,3.87
2019-05-28T15:29:52.928Z,4.23
2019-05-28T15:32:24.599Z,4.20
2019-05-28T15:34:56.958Z,4.47
2019-05-28T15:37:28.159Z,4.70
2019-05-28T15:40:00.926Z,4.37
2019-05-28T15:42:33.620Z,3.37
2019-05-28T15:45:05.631Z,3.60
2019-05-28T15:47:37.386Z,2.93
2019-05-28T15:50:10.479Z,3.23
2019-05-28T15:52:42.787Z,3.13
2019-05-28T15:55:14.587Z,3.10
2019-05-28T15:57:46.356Z,3.00
2019-05-28T16:00:21.262Z,3.30
2019-05-28T16:02:53.166Z,3.43
2019-05-28T16:05:25.819Z,2.90
2019-05-28T16:07:57.035Z,3.00
2019-05-28T16:10:28.163Z,3.37
2019-05-28T16:12:59.252Z,3.33
2019-05-28T16:15:30.702Z,2.97
2019-05-28T16:18:01.889Z,2.77
2019-05-28T16:20:33.461Z,3.07
2019-05-28T16:23:04.544Z,2.70
2019-05-28T16:25:35.995Z,3.10
2019-05-28T16:28:07.093Z,3.20
2019-05-28T16:30:38.495Z,3.17
2019-05-28T16:33:09.596Z,2.93
2019-05-28T16:35:40.876Z,2.73
2019-05-28T16:38:11.955Z,3.23
2019-05-28T16:40:43.582Z,3.13
2019-05-28T16:43:18.069Z,2.77
2019-05-28T16:45:49.291Z,3.07
2019-05-28T16:48:20.309Z,3.10
2019-05-28T16:50:51.647Z,2.70
2019-05-28T16:53:22.734Z,2.60
2019-05-28T16:55:54.004Z,2.40
2019-05-28T16:58:25.078Z,3.00
2019-05-28T17:01:04.673Z,2.70
2019-05-28T17:03:30.279Z,2.43
2019-05-28T17:06:01.607Z,2.37
2019-05-28T17:08:32.691Z,2.70
2019-05-28T17:11:04.236Z,2.63
2019-05-28T17:13:35.633Z,2.40
2019-05-28T17:16:06.976Z,2.43
2019-05-28T17:18:38.039Z,2.33
2019-05-28T17:21:10.549Z,2.50
2019-05-28T17:23:41.722Z,2.70
2019-05-28T17:26:13.082Z,2.67
2019-05-28T17:28:44.236Z,2.60
2019-05-28T17:31:15.510Z,2.27
2019-05-28T17:33:46.927Z,2.20
2019-05-28T17:36:18.418Z,2.50
2019-05-28T17:38:49.659Z,2.00
2019-05-28T17:41:21.015Z,2.53
2019-05-28T17:43:53.045Z,2.30
2019-05-28T17:46:24.404Z,2.60
2019-05-28T17:48:56.472Z,2.47
2019-05-28T17:51:27.731Z,2.30
2019-05-28T17:53:59.170Z,2.37
2019-05-28T17:56:30.493Z,2.40
2019-05-28T17:59:01.629Z,2.40
2019-05-28T18:01:33.006Z,2.30
2019-05-28T18:04:04.526Z,2.63
2019-05-28T18:06:36.128Z,2.23
2019-05-28T18:09:09.649Z,2.03
2019-05-28T18:11:40.983Z,2.50
2019-05-28T18:14:12.119Z,2.80
2019-05-28T18:16:43.282Z,2.47
2019-05-28T18:19:14.466Z,2.10
2019-05-28T18:21:45.871Z,2.40
2019-05-28T18:24:17.297Z,2.40
2019-05-28T18:26:48.576Z,2.53
2019-05-28T18:29:19.700Z,2.60
2019-05-28T18:31:50.935Z,2.10
2019-05-28T18:34:22.164Z,2.30
2019-05-28T18:36:53.468Z,2.30
2019-05-28T18:39:25.600Z,2.10
2019-05-28T18:41:57.516Z,2.47
2019-05-28T18:44:28.820Z,2.13
2019-05-28T18:47:11.455Z,2.13
2019-05-28T18:49:42.575Z,2.17
2019-05-28T18:52:13.886Z,2.57
2019-05-28T18:54:45.347Z,2.50
2019-05-28T18:57:18.221Z,2.90
2019-05-28T18:59:49.518Z,2.53
2019-05-28T19:02:20.800Z,2.30
2019-05-28T19:04:51.963Z,2.53
2019-05-28T19:07:23.368Z,2.53
2019-05-28T19:09:54.439Z,2.70
2019-05-28T19:12:25.651Z,3.20
2019-05-28T19:14:56.772Z,2.53
2019-05-28T19:17:28.328Z,2.77
2019-05-28T19:19:59.535Z,2.80
2019-05-28T19:22:31.052Z,2.70
2019-05-28T19:25:02.243Z,2.63
2019-05-28T19:27:35.643Z,2.53
2019-05-28T19:30:08.603Z,3.07
2019-05-28T19:32:41.309Z,3.00
2019-05-28T19:35:12.787Z,3.33
2019-05-28T19:37:44.853Z,2.90
2019-05-28T19:40:19.733Z,2.97
2019-05-28T19:42:50.968Z,3.10
2019-05-28T19:45:22.015Z,2.63
2019-05-28T19:47:53.455Z,3.00
2019-05-28T19:50:24.597Z,3.30
2019-05-28T19:52:57.310Z,2.47
2019-05-28T19:55:28.799Z,2.77
2019-05-28T19:58:00.080Z,2.97
2019-05-28T20:00:31.223Z,2.97
2019-05-28T20:03:02.708Z,2.90
2019-05-28T20:05:34.318Z,3.70
2019-05-28T20:08:05.622Z,2.57
2019-05-28T20:10:36.891Z,3.50
2019-05-28T20:13:08.111Z,2.97
2019-05-28T20:15:39.251Z,2.93
2019-05-28T20:18:25.900Z,3.10
2019-05-28T20:20:43.740Z,3.13
2019-05-28T20:23:15.316Z,3.10
2019-05-28T20:25:48.968Z,3.20
2019-05-28T20:28:31.160Z,2.90
2019-05-28T20:31:02.324Z,3.30
2019-05-28T20:33:33.833Z,3.20
2019-05-28T20:36:05.912Z,3.30
2019-05-28T20:38:37.435Z,3.20
2019-05-28T20:41:08.522Z,3.40
2019-05-28T20:43:39.650Z,3.17
2019-05-28T20:46:20.769Z,3.30
2019-05-28T20:48:51.884Z,3.30
2019-05-28T20:51:23.004Z,3.03
2019-05-28T20:53:55.774Z,2.97
2019-05-28T20:56:26.924Z,3.60
2019-05-28T20:59:01.257Z,3.70
2019-05-28T21:01:31.443Z,2.80
2019-05-28T21:04:02.765Z,3.70
2019-05-28T21:06:33.820Z,3.30
2019-05-28T21:09:07.361Z,3.40
2019-05-28T21:11:38.887Z,3.60
2019-05-28T21:14:10.197Z,3.37
2019-05-28T21:16:42.311Z,3.80
2019-05-28T21:19:13.617Z,3.27
2019-05-28T21:21:44.744Z,3.43
2019-05-28T21:24:16.185Z,2.93
2019-05-28T21:26:47.273Z,3.63
2019-05-28T21:29:18.579Z,2.83
2019-05-28T21:31:50.458Z,3.00
2019-05-28T21:34:22.293Z,3.10
2019-05-28T21:36:53.379Z,2.93
2019-05-28T21:39:25.579Z,3.50
2019-05-28T21:41:59.774Z,3.20
2019-05-28T21:44:31.141Z,3.50
2019-05-28T21:47:02.625Z,3.10
2019-05-28T21:49:34.179Z,3.13
2019-05-28T21:52:05.305Z,3.13
2019-05-28T21:54:36.777Z,3.77
2019-05-28T21:57:07.896Z,3.57
2019-05-28T21:59:39.256Z,3.50
2019-05-28T22:02:11.240Z,3.00
2019-05-28T22:04:42.581Z,3.40
2019-05-28T22:07:13.607Z,3.53
2019-05-28T22:09:44.981Z,2.90
2019-05-28T22:12:16.043Z,3.10
2019-05-28T22:14:47.264Z,2.60
2019-05-28T22:17:18.308Z,3.27
2019-05-28T22:19:49.679Z,3.10
2019-05-28T22:22:20.832Z,3.10
2019-05-28T22:25:11.204Z,3.10
2019-05-28T22:27:42.262Z,2.77
2019-05-28T22:30:14.619Z,2.40
2019-05-28T22:32:45.735Z,2.27
2019-05-28T22:35:17.725Z,2.20
2019-05-28T22:37:48.862Z,1.93
2019-05-28T22:40:20.429Z,2.10
2019-05-28T22:42:51.506Z,1.80
2019-05-28T22:45:22.923Z,2.20
2019-05-28T22:47:53.972Z,2.17
2019-05-28T22:50:25.311Z,2.03
2019-05-28T22:52:57.704Z,2.17
2019-05-28T22:55:29.142Z,2.27
2019-05-28T22:58:00.261Z,2.33
2019-05-28T23:00:31.637Z,2.27
2019-05-28T23:03:02.989Z,1.80
2019-05-28T23:05:34.541Z,2.10
2019-05-28T23:08:05.874Z,2.20
2019-05-28T23:10:37.411Z,2.13
2019-05-28T23:13:09.127Z,2.20
2019-05-28T23:15:40.960Z,1.80
2019-05-28T23:18:12.021Z,1.90
2019-05-28T23:20:43.235Z,1.90
2019-05-28T23:23:14.295Z,1.87
2019-05-28T23:25:45.951Z,1.80
2019-05-28T23:28:17.105Z,1.53
2019-05-28T23:30:48.547Z,1.80
2019-05-28T23:33:19.687Z,1.70
2019-05-28T23:35:50.811Z,1.60
2019-05-28T23:38:21.861Z,1.80
2019-05-28T23:40:53.131Z,1.70
2019-05-28T23:43:24.341Z,1.80
2019-05-28T23:45:55.607Z,1.63
2019-05-28T23:48:26.733Z,2.00
2019-05-28T23:50:58.119Z,2.10
2019-05-28T23:53:29.173Z,2.27
2019-05-28T23:56:00.509Z,2.50
2019-05-28T23:58:31.559Z,2.70
